logo
Search for airport 
image banner adimage banner adimage banner ad
image banner ad

FAWT - Winterveldt Mine

Located in Westerberg, South Africa

ICAO - FAWT, IATA -

Data provided by Airmate  

General information

Coordinates: S24°39'39" E30°10'51"
Elevation is 2906 feet MSL.
 
View others Airports in Northern Cape

Operational data

Special qualification required
Current time UTC:
Current local time:
Weather at : - ( 0 km )
METAR: KOWA 230433Z AUTO 26006KT 10SM CLR 10/01 A2967 RMK AO2
View NOTAMs / SUP AIP / TFR affecting this airport [VIEW]
Communications frequencies: [VIEW]

Runways:

RWY identifierQFULength (ft)Width (ft)SurfaceLDA (ft)
16140°492198SAND
34320°492198SAND

Airport contact information

Address: Westerberg South Africa

Satellite view of FAWT